sensor_id;sensor_type;location;lat;lon;timestamp;P1;durP1;ratioP1;P2;durP2;ratioP2
59016;SDS011;44800;55.600;38.134;2023-04-28T00:00:04;19.48;;;11.20;;
59016;SDS011;44800;55.600;38.134;2023-04-28T00:02:36;20.13;;;11.77;;
59016;SDS011;44800;55.600;38.134;2023-04-28T00:05:05;24.13;;;11.90;;
59016;SDS011;44800;55.600;38.134;2023-04-28T00:07:34;18.13;;;11.95;;
59016;SDS011;44800;55.600;38.134;2023-04-28T00:10:03;17.42;;;11.27;;
59016;SDS011;44800;55.600;38.134;2023-04-28T00:12:33;16.60;;;12.20;;
59016;SDS011;44800;55.600;38.134;2023-04-28T00:15:01;17.40;;;10.85;;
59016;SDS011;44800;55.600;38.134;2023-04-28T00:17:33;19.25;;;12.43;;
59016;SDS011;44800;55.600;38.134;2023-04-28T00:20:04;19.17;;;10.40;;
59016;SDS011;44800;55.600;38.134;2023-04-28T00:22:34;20.17;;;11.35;;
59016;SDS011;44800;55.600;38.134;2023-04-28T00:25:02;19.80;;;11.65;;
59016;SDS011;44800;55.600;38.134;2023-04-28T00:27:31;18.50;;;12.27;;
59016;SDS011;44800;55.600;38.134;2023-04-28T00:30:00;18.35;;;11.48;;
59016;SDS011;44800;55.600;38.134;2023-04-28T00:32:32;16.93;;;10.87;;
59016;SDS011;44800;55.600;38.134;2023-04-28T00:35:02;20.60;;;12.55;;
59016;SDS011;44800;55.600;38.134;2023-04-28T00:37:34;19.38;;;12.27;;
59016;SDS011;44800;55.600;38.134;2023-04-28T00:40:03;20.92;;;13.10;;
59016;SDS011;44800;55.600;38.134;2023-04-28T00:42:33;22.42;;;12.95;;
59016;SDS011;44800;55.600;38.134;2023-04-28T00:45:02;19.63;;;12.25;;
59016;SDS011;44800;55.600;38.134;2023-04-28T00:47:33;22.17;;;12.27;;
59016;SDS011;44800;55.600;38.134;2023-04-28T00:50:03;22.13;;;11.98;;
59016;SDS011;44800;55.600;38.134;2023-04-28T00:52:32;20.80;;;12.15;;
59016;SDS011;44800;55.600;38.134;2023-04-28T00:55:01;21.05;;;11.63;;
59016;SDS011;44800;55.600;38.134;2023-04-28T00:57:30;20.63;;;13.07;;
59016;SDS011;44800;55.600;38.134;2023-04-28T00:59:59;21.30;;;12.77;;
59016;SDS011;44800;55.600;38.134;2023-04-28T01:02:30;16.98;;;12.68;;
59016;SDS011;44800;55.600;38.134;2023-04-28T01:04:59;20.98;;;13.63;;
59016;SDS011;44800;55.600;38.134;2023-04-28T01:07:32;19.83;;;13.52;;
59016;SDS011;44800;55.600;38.134;2023-04-28T01:10:01;20.42;;;13.70;;
59016;SDS011;44800;55.600;38.134;2023-04-28T01:12:30;20.27;;;13.40;;
59016;SDS011;44800;55.600;38.134;2023-04-28T01:14:59;21.15;;;13.93;;
59016;SDS011;44800;55.600;38.134;2023-04-28T01:17:30;23.95;;;13.82;;
59016;SDS011;44800;55.600;38.134;2023-04-28T01:19:58;19.85;;;11.95;;
59016;SDS011;44800;55.600;38.134;2023-04-28T01:22:29;22.98;;;13.68;;
59016;SDS011;44800;55.600;38.134;2023-04-28T01:25:00;21.63;;;12.85;;
59016;SDS011;44800;55.600;38.134;2023-04-28T01:27:29;19.60;;;12.70;;
59016;SDS011;44800;55.600;38.134;2023-04-28T01:29:58;19.20;;;12.75;;
59016;SDS011;44800;55.600;38.134;2023-04-28T01:32:26;24.55;;;12.77;;
59016;SDS011;44800;55.600;38.134;2023-04-28T01:34:54;22.05;;;13.20;;
59016;SDS011;44800;55.600;38.134;2023-04-28T01:37:23;24.45;;;13.55;;
59016;SDS011;44800;55.600;38.134;2023-04-28T01:39:51;20.05;;;12.30;;
59016;SDS011;44800;55.600;38.134;2023-04-28T01:42:21;22.27;;;12.75;;
59016;SDS011;44800;55.600;38.134;2023-04-28T01:44:49;20.60;;;11.10;;
59016;SDS011;44800;55.600;38.134;2023-04-28T01:47:18;21.23;;;12.57;;
59016;SDS011;44800;55.600;38.134;2023-04-28T01:49:47;20.48;;;12.77;;
59016;SDS011;44800;55.600;38.134;2023-04-28T01:52:16;28.50;;;13.13;;
59016;SDS011;44800;55.600;38.134;2023-04-28T01:54:45;21.00;;;12.23;;
59016;SDS011;44800;55.600;38.134;2023-04-28T01:57:13;19.27;;;12.88;;
59016;SDS011;44800;55.600;38.134;2023-04-28T01:59:44;20.92;;;12.18;;
59016;SDS011;44800;55.600;38.134;2023-04-28T02:02:13;19.92;;;11.88;;
59016;SDS011;44800;55.600;38.134;2023-04-28T02:04:41;17.33;;;11.80;;
59016;SDS011;44800;55.600;38.134;2023-04-28T02:07:09;22.83;;;12.18;;
59016;SDS011;44800;55.600;38.134;2023-04-28T02:09:38;17.67;;;11.57;;
59016;SDS011;44800;55.600;38.134;2023-04-28T02:12:06;21.98;;;12.35;;
59016;SDS011;44800;55.600;38.134;2023-04-28T02:14:35;16.15;;;11.18;;
59016;SDS011;44800;55.600;38.134;2023-04-28T02:17:04;16.80;;;11.85;;
59016;SDS011;44800;55.600;38.134;2023-04-28T02:19:33;21.45;;;12.35;;
59016;SDS011;44800;55.600;38.134;2023-04-28T02:22:04;24.40;;;12.25;;
59016;SDS011;44800;55.600;38.134;2023-04-28T02:24:33;21.15;;;12.48;;
59016;SDS011;44800;55.600;38.134;2023-04-28T02:27:03;18.02;;;11.32;;
59016;SDS011;44800;55.600;38.134;2023-04-28T02:29:32;19.83;;;12.65;;
59016;SDS011;44800;55.600;38.134;2023-04-28T02:32:00;22.67;;;13.35;;
59016;SDS011;44800;55.600;38.134;2023-04-28T02:34:30;26.35;;;12.02;;
59016;SDS011;44800;55.600;38.134;2023-04-28T02:36:58;17.80;;;11.65;;
59016;SDS011;44800;55.600;38.134;2023-04-28T02:39:27;21.67;;;11.25;;
59016;SDS011;44800;55.600;38.134;2023-04-28T02:41:56;15.80;;;11.85;;
59016;SDS011;44800;55.600;38.134;2023-04-28T02:44:25;21.35;;;11.15;;
59016;SDS011;44800;55.600;38.134;2023-04-28T02:46:53;19.48;;;10.57;;
59016;SDS011;44800;55.600;38.134;2023-04-28T02:49:22;17.42;;;12.18;;
59016;SDS011;44800;55.600;38.134;2023-04-28T02:51:52;20.48;;;10.52;;
59016;SDS011;44800;55.600;38.134;2023-04-28T02:54:20;17.10;;;9.82;;
59016;SDS011;44800;55.600;38.134;2023-04-28T02:56:53;16.90;;;10.05;;
59016;SDS011;44800;55.600;38.134;2023-04-28T02:59:22;17.33;;;10.43;;
59016;SDS011;44800;55.600;38.134;2023-04-28T03:01:51;19.95;;;11.57;;
59016;SDS011;44800;55.600;38.134;2023-04-28T03:04:19;16.38;;;10.45;;
59016;SDS011;44800;55.600;38.134;2023-04-28T03:06:48;15.07;;;9.40;;
59016;SDS011;44800;55.600;38.134;2023-04-28T03:09:18;19.95;;;10.15;;
59016;SDS011;44800;55.600;38.134;2023-04-28T03:11:46;15.98;;;8.55;;
59016;SDS011;44800;55.600;38.134;2023-04-28T03:14:15;17.58;;;10.57;;
59016;SDS011;44800;55.600;38.134;2023-04-28T03:16:43;14.32;;;8.63;;
59016;SDS011;44800;55.600;38.134;2023-04-28T03:19:12;14.07;;;10.32;;
59016;SDS011;44800;55.600;38.134;2023-04-28T03:21:40;15.50;;;10.35;;
59016;SDS011;44800;55.600;38.134;2023-04-28T03:24:09;13.88;;;10.00;;
59016;SDS011;44800;55.600;38.134;2023-04-28T03:26:39;15.40;;;11.48;;
59016;SDS011;44800;55.600;38.134;2023-04-28T03:29:08;25.20;;;11.27;;
59016;SDS011;44800;55.600;38.134;2023-04-28T03:31:36;15.15;;;10.13;;
59016;SDS011;44800;55.600;38.134;2023-04-28T03:34:04;16.77;;;8.98;;
59016;SDS011;44800;55.600;38.134;2023-04-28T03:36:33;13.13;;;9.45;;
59016;SDS011;44800;55.600;38.134;2023-04-28T03:39:01;23.38;;;10.93;;
59016;SDS011;44800;55.600;38.134;2023-04-28T03:41:30;15.27;;;9.88;;
59016;SDS011;44800;55.600;38.134;2023-04-28T03:43:59;12.15;;;9.02;;
59016;SDS011;44800;55.600;38.134;2023-04-28T03:46:28;14.50;;;9.65;;
59016;SDS011;44800;55.600;38.134;2023-04-28T03:48:56;16.10;;;8.93;;
59016;SDS011;44800;55.600;38.134;2023-04-28T03:51:25;15.95;;;9.30;;
59016;SDS011;44800;55.600;38.134;2023-04-28T03:53:54;14.25;;;9.10;;
59016;SDS011;44800;55.600;38.134;2023-04-28T03:56:23;15.40;;;9.02;;
59016;SDS011;44800;55.600;38.134;2023-04-28T03:58:52;15.63;;;9.77;;
59016;SDS011;44800;55.600;38.134;2023-04-28T04:01:21;14.05;;;9.65;;
59016;SDS011;44800;55.600;38.134;2023-04-28T04:03:51;14.88;;;9.93;;
59016;SDS011;44800;55.600;38.134;2023-04-28T04:06:20;16.77;;;10.18;;
59016;SDS011;44800;55.600;38.134;2023-04-28T04:08:48;19.38;;;10.30;;
59016;SDS011;44800;55.600;38.134;2023-04-28T04:11:17;15.00;;;8.88;;
59016;SDS011;44800;55.600;38.134;2023-04-28T04:13:45;20.45;;;10.57;;
59016;SDS011;44800;55.600;38.134;2023-04-28T04:16:14;16.70;;;7.82;;
59016;SDS011;44800;55.600;38.134;2023-04-28T04:18:43;14.65;;;8.77;;
59016;SDS011;44800;55.600;38.134;2023-04-28T04:21:12;17.38;;;9.82;;
59016;SDS011;44800;55.600;38.134;2023-04-28T04:23:40;15.68;;;8.95;;
59016;SDS011;44800;55.600;38.134;2023-04-28T04:26:08;12.77;;;9.20;;
59016;SDS011;44800;55.600;38.134;2023-04-28T04:28:37;15.90;;;7.72;;
59016;SDS011;44800;55.600;38.134;2023-04-28T04:31:06;15.18;;;8.73;;
59016;SDS011;44800;55.600;38.134;2023-04-28T04:33:35;18.65;;;9.88;;
59016;SDS011;44800;55.600;38.134;2023-04-28T04:36:05;9.75;;;8.05;;
59016;SDS011;44800;55.600;38.134;2023-04-28T04:38:34;13.57;;;9.27;;
59016;SDS011;44800;55.600;38.134;2023-04-28T04:41:02;12.55;;;10.40;;
59016;SDS011;44800;55.600;38.134;2023-04-28T04:43:31;16.88;;;9.68;;
59016;SDS011;44800;55.600;38.134;2023-04-28T04:45:59;14.32;;;8.02;;
59016;SDS011;44800;55.600;38.134;2023-04-28T04:48:29;17.25;;;9.00;;
59016;SDS011;44800;55.600;38.134;2023-04-28T04:50:57;13.38;;;9.07;;
59016;SDS011;44800;55.600;38.134;2023-04-28T04:53:27;12.35;;;8.10;;
59016;SDS011;44800;55.600;38.134;2023-04-28T04:55:56;16.08;;;8.98;;
59016;SDS011;44800;55.600;38.134;2023-04-28T04:58:24;16.27;;;9.45;;
59016;SDS011;44800;55.600;38.134;2023-04-28T05:00:53;12.43;;;8.73;;
59016;SDS011;44800;55.600;38.134;2023-04-28T05:03:22;14.50;;;7.90;;
59016;SDS011;44800;55.600;38.134;2023-04-28T05:05:50;11.63;;;8.80;;
59016;SDS011;44800;55.600;38.134;2023-04-28T05:08:19;12.77;;;9.85;;
59016;SDS011;44800;55.600;38.134;2023-04-28T05:10:49;13.20;;;8.55;;
59016;SDS011;44800;55.600;38.134;2023-04-28T05:13:17;14.32;;;8.45;;
59016;SDS011;44800;55.600;38.134;2023-04-28T05:15:46;12.88;;;8.48;;
59016;SDS011;44800;55.600;38.134;2023-04-28T05:18:14;14.02;;;8.68;;
59016;SDS011;44800;55.600;38.134;2023-04-28T05:20:42;18.88;;;8.63;;
59016;SDS011;44800;55.600;38.134;2023-04-28T05:23:11;12.68;;;8.32;;
59016;SDS011;44800;55.600;38.134;2023-04-28T05:25:39;14.57;;;8.32;;
59016;SDS011;44800;55.600;38.134;2023-04-28T05:28:09;15.43;;;8.15;;
59016;SDS011;44800;55.600;38.134;2023-04-28T05:30:38;11.63;;;7.50;;
59016;SDS011;44800;55.600;38.134;2023-04-28T05:33:07;16.23;;;8.43;;
59016;SDS011;44800;55.600;38.134;2023-04-28T05:35:36;12.43;;;7.38;;
59016;SDS011;44800;55.600;38.134;2023-04-28T05:38:04;12.38;;;7.20;;
59016;SDS011;44800;55.600;38.134;2023-04-28T05:40:33;8.27;;;6.68;;
59016;SDS011;44800;55.600;38.134;2023-04-28T05:43:01;12.07;;;7.20;;
59016;SDS011;44800;55.600;38.134;2023-04-28T05:45:31;7.18;;;5.60;;
59016;SDS011;44800;55.600;38.134;2023-04-28T05:48:00;9.93;;;6.82;;
59016;SDS011;44800;55.600;38.134;2023-04-28T05:50:30;9.65;;;5.75;;
59016;SDS011;44800;55.600;38.134;2023-04-28T05:52:59;8.25;;;5.72;;
59016;SDS011;44800;55.600;38.134;2023-04-28T05:55:27;8.18;;;5.88;;
59016;SDS011;44800;55.600;38.134;2023-04-28T05:57:56;7.60;;;5.85;;
59016;SDS011;44800;55.600;38.134;2023-04-28T06:00:25;12.43;;;6.13;;
59016;SDS011;44800;55.600;38.134;2023-04-28T06:02:55;7.13;;;5.55;;
59016;SDS011;44800;55.600;38.134;2023-04-28T06:05:24;9.88;;;5.85;;
59016;SDS011;44800;55.600;38.134;2023-04-28T06:07:53;9.00;;;5.90;;
59016;SDS011;44800;55.600;38.134;2023-04-28T06:10:22;9.70;;;5.53;;
59016;SDS011;44800;55.600;38.134;2023-04-28T06:12:52;7.50;;;5.95;;
59016;SDS011;44800;55.600;38.134;2023-04-28T06:15:20;8.18;;;5.85;;
59016;SDS011;44800;55.600;38.134;2023-04-28T06:17:49;7.53;;;6.07;;
59016;SDS011;44800;55.600;38.134;2023-04-28T06:20:19;8.10;;;5.15;;
59016;SDS011;44800;55.600;38.134;2023-04-28T06:22:47;8.95;;;5.30;;
59016;SDS011;44800;55.600;38.134;2023-04-28T06:25:16;9.85;;;5.20;;
59016;SDS011;44800;55.600;38.134;2023-04-28T06:27:46;5.75;;;4.20;;
59016;SDS011;44800;55.600;38.134;2023-04-28T06:30:16;10.77;;;4.75;;
59016;SDS011;44800;55.600;38.134;2023-04-28T06:32:46;7.93;;;5.10;;
59016;SDS011;44800;55.600;38.134;2023-04-28T06:35:14;6.72;;;4.70;;
59016;SDS011;44800;55.600;38.134;2023-04-28T06:37:45;6.10;;;5.50;;
59016;SDS011;44800;55.600;38.134;2023-04-28T06:40:13;18.38;;;7.72;;
59016;SDS011;44800;55.600;38.134;2023-04-28T06:42:42;8.00;;;5.25;;
59016;SDS011;44800;55.600;38.134;2023-04-28T06:45:10;8.23;;;4.88;;
59016;SDS011;44800;55.600;38.134;2023-04-28T06:47:39;5.05;;;4.10;;
59016;SDS011;44800;55.600;38.134;2023-04-28T06:50:08;7.57;;;5.55;;
59016;SDS011;44800;55.600;38.134;2023-04-28T06:52:36;6.97;;;4.85;;
59016;SDS011;44800;55.600;38.134;2023-04-28T06:55:08;6.75;;;4.22;;
59016;SDS011;44800;55.600;38.134;2023-04-28T06:57:36;5.95;;;3.88;;
59016;SDS011;44800;55.600;38.134;2023-04-28T07:00:05;6.70;;;3.28;;
59016;SDS011;44800;55.600;38.134;2023-04-28T07:02:34;4.45;;;3.40;;
59016;SDS011;44800;55.600;38.134;2023-04-28T07:05:03;4.47;;;3.90;;
59016;SDS011;44800;55.600;38.134;2023-04-28T07:07:32;4.15;;;3.20;;
59016;SDS011;44800;55.600;38.134;2023-04-28T07:10:02;5.25;;;3.20;;
59016;SDS011;44800;55.600;38.134;2023-04-28T07:12:32;5.07;;;3.83;;
59016;SDS011;44800;55.600;38.134;2023-04-28T07:15:00;6.45;;;3.47;;
59016;SDS011;44800;55.600;38.134;2023-04-28T07:17:32;3.50;;;3.08;;
59016;SDS011;44800;55.600;38.134;2023-04-28T07:20:00;5.68;;;3.20;;
59016;SDS011;44800;55.600;38.134;2023-04-28T07:22:30;8.02;;;3.90;;
59016;SDS011;44800;55.600;38.134;2023-04-28T07:24:58;4.80;;;3.40;;
59016;SDS011;44800;55.600;38.134;2023-04-28T07:27:27;7.13;;;3.72;;
59016;SDS011;44800;55.600;38.134;2023-04-28T07:29:57;5.28;;;3.78;;
59016;SDS011;44800;55.600;38.134;2023-04-28T07:32:25;5.75;;;4.22;;
59016;SDS011;44800;55.600;38.134;2023-04-28T07:34:53;4.05;;;2.90;;
59016;SDS011;44800;55.600;38.134;2023-04-28T07:37:22;6.10;;;4.47;;
59016;SDS011;44800;55.600;38.134;2023-04-28T07:39:51;8.82;;;4.22;;
59016;SDS011;44800;55.600;38.134;2023-04-28T07:42:20;4.90;;;4.35;;
59016;SDS011;44800;55.600;38.134;2023-04-28T07:44:48;8.57;;;5.10;;
59016;SDS011;44800;55.600;38.134;2023-04-28T07:47:18;11.15;;;5.75;;
59016;SDS011;44800;55.600;38.134;2023-04-28T07:49:47;9.10;;;5.22;;
59016;SDS011;44800;55.600;38.134;2023-04-28T07:52:15;7.82;;;5.03;;
59016;SDS011;44800;55.600;38.134;2023-04-28T07:54:43;5.07;;;4.43;;
59016;SDS011;44800;55.600;38.134;2023-04-28T07:57:12;7.32;;;4.70;;
59016;SDS011;44800;55.600;38.134;2023-04-28T07:59:40;10.35;;;5.10;;
59016;SDS011;44800;55.600;38.134;2023-04-28T08:02:09;8.60;;;3.72;;
59016;SDS011;44800;55.600;38.134;2023-04-28T08:04:40;7.93;;;3.47;;
59016;SDS011;44800;55.600;38.134;2023-04-28T08:07:08;5.03;;;3.53;;
59016;SDS011;44800;55.600;38.134;2023-04-28T08:09:37;7.97;;;4.03;;
59016;SDS011;44800;55.600;38.134;2023-04-28T08:12:08;5.78;;;3.58;;
59016;SDS011;44800;55.600;38.134;2023-04-28T08:14:37;5.72;;;3.20;;
59016;SDS011;44800;55.600;38.134;2023-04-28T08:17:05;4.53;;;3.63;;
59016;SDS011;44800;55.600;38.134;2023-04-28T08:19:35;6.25;;;4.00;;
59016;SDS011;44800;55.600;38.134;2023-04-28T08:22:04;5.72;;;3.50;;
59016;SDS011;44800;55.600;38.134;2023-04-28T08:24:33;5.40;;;3.70;;
59016;SDS011;44800;55.600;38.134;2023-04-28T08:27:02;7.47;;;3.80;;
59016;SDS011;44800;55.600;38.134;2023-04-28T08:29:30;4.28;;;3.15;;
59016;SDS011;44800;55.600;38.134;2023-04-28T08:31:59;5.05;;;3.33;;
59016;SDS011;44800;55.600;38.134;2023-04-28T08:34:28;4.05;;;3.70;;
59016;SDS011;44800;55.600;38.134;2023-04-28T08:36:56;3.55;;;3.25;;
59016;SDS011;44800;55.600;38.134;2023-04-28T08:39:26;4.45;;;3.72;;
59016;SDS011;44800;55.600;38.134;2023-04-28T08:41:55;5.15;;;4.18;;
59016;SDS011;44800;55.600;38.134;2023-04-28T08:44:23;9.15;;;3.85;;
59016;SDS011;44800;55.600;38.134;2023-04-28T08:46:53;4.65;;;3.72;;
59016;SDS011;44800;55.600;38.134;2023-04-28T08:49:26;4.72;;;3.47;;
59016;SDS011;44800;55.600;38.134;2023-04-28T08:52:02;4.85;;;3.15;;
59016;SDS011;44800;55.600;38.134;2023-04-28T08:54:32;7.22;;;3.65;;
59016;SDS011;44800;55.600;38.134;2023-04-28T08:57:03;4.50;;;3.55;;
59016;SDS011;44800;55.600;38.134;2023-04-28T08:59:31;5.47;;;3.28;;
59016;SDS011;44800;55.600;38.134;2023-04-28T09:02:00;5.35;;;4.00;;
59016;SDS011;44800;55.600;38.134;2023-04-28T09:04:28;5.45;;;3.92;;
59016;SDS011;44800;55.600;38.134;2023-04-28T09:06:57;4.07;;;3.78;;
59016;SDS011;44800;55.600;38.134;2023-04-28T09:09:25;6.03;;;4.03;;
59016;SDS011;44800;55.600;38.134;2023-04-28T09:12:00;7.53;;;4.18;;
59016;SDS011;44800;55.600;38.134;2023-04-28T09:14:31;5.13;;;4.07;;
59016;SDS011;44800;55.600;38.134;2023-04-28T09:17:01;6.20;;;4.57;;
59016;SDS011;44800;55.600;38.134;2023-04-28T09:19:33;6.70;;;5.28;;
59016;SDS011;44800;55.600;38.134;2023-04-28T09:22:03;6.68;;;5.38;;
59016;SDS011;44800;55.600;38.134;2023-04-28T09:24:49;6.03;;;5.43;;
59016;SDS011;44800;55.600;38.134;2023-04-28T09:27:24;6.10;;;5.40;;
59016;SDS011;44800;55.600;38.134;2023-04-28T09:29:54;8.60;;;4.65;;
59016;SDS011;44800;55.600;38.134;2023-04-28T09:32:22;7.65;;;5.30;;
59016;SDS011;44800;55.600;38.134;2023-04-28T09:34:53;7.43;;;4.80;;
59016;SDS011;44800;55.600;38.134;2023-04-28T09:37:24;7.50;;;6.05;;
59016;SDS011;44800;55.600;38.134;2023-04-28T09:39:53;7.32;;;5.53;;
59016;SDS011;44800;55.600;38.134;2023-04-28T09:42:33;7.43;;;5.22;;
59016;SDS011;44800;55.600;38.134;2023-04-28T09:45:02;10.07;;;6.30;;
59016;SDS011;44800;55.600;38.134;2023-04-28T09:47:33;6.75;;;5.93;;
59016;SDS011;44800;55.600;38.134;2023-04-28T09:50:04;9.18;;;5.13;;
59016;SDS011;44800;55.600;38.134;2023-04-28T09:52:35;7.65;;;5.97;;
59016;SDS011;44800;55.600;38.134;2023-04-28T09:55:04;6.68;;;5.40;;
59016;SDS011;44800;55.600;38.134;2023-04-28T09:57:35;7.00;;;5.65;;
59016;SDS011;44800;55.600;38.134;2023-04-28T10:00:05;7.00;;;6.15;;
59016;SDS011;44800;55.600;38.134;2023-04-28T10:02:38;7.85;;;6.75;;
59016;SDS011;44800;55.600;38.134;2023-04-28T10:05:09;7.88;;;5.80;;
59016;SDS011;44800;55.600;38.134;2023-04-28T10:07:38;8.68;;;5.85;;
59016;SDS011;44800;55.600;38.134;2023-04-28T10:10:07;7.22;;;5.97;;
59016;SDS011;44800;55.600;38.134;2023-04-28T10:12:37;4.88;;;4.28;;
59016;SDS011;44800;55.600;38.134;2023-04-28T10:15:07;6.90;;;6.05;;
59016;SDS011;44800;55.600;38.134;2023-04-28T10:17:37;9.70;;;6.53;;
59016;SDS011;44800;55.600;38.134;2023-04-28T10:20:07;9.00;;;6.72;;
59016;SDS011;44800;55.600;38.134;2023-04-28T10:22:41;8.30;;;6.50;;
59016;SDS011;44800;55.600;38.134;2023-04-28T10:25:23;8.30;;;7.07;;
59016;SDS011;44800;55.600;38.134;2023-04-28T10:27:54;12.32;;;9.82;;
59016;SDS011;44800;55.600;38.134;2023-04-28T10:30:24;11.68;;;8.77;;
59016;SDS011;44800;55.600;38.134;2023-04-28T10:35:53;10.70;;;9.18;;
59016;SDS011;44800;55.600;38.134;2023-04-28T10:38:21;11.07;;;9.77;;
59016;SDS011;44800;55.600;38.134;2023-04-28T10:40:49;10.00;;;8.50;;
59016;SDS011;44800;55.600;38.134;2023-04-28T10:43:36;8.63;;;7.72;;
59016;SDS011;44800;55.600;38.134;2023-04-28T10:46:06;9.20;;;8.05;;
59016;SDS011;44800;55.600;38.134;2023-04-28T10:51:32;11.77;;;8.20;;
59016;SDS011;44800;55.600;38.134;2023-04-28T10:54:14;12.27;;;8.50;;
59016;SDS011;44800;55.600;38.134;2023-04-28T10:59:48;10.45;;;8.73;;
59016;SDS011;44800;55.600;38.134;2023-04-28T11:02:35;9.82;;;7.85;;
59016;SDS011;44800;55.600;38.134;2023-04-28T11:05:10;8.90;;;7.95;;
59016;SDS011;44800;55.600;38.134;2023-04-28T11:11:11;7.80;;;6.65;;
59016;SDS011;44800;55.600;38.134;2023-04-28T11:13:44;9.80;;;7.25;;
59016;SDS011;44800;55.600;38.134;2023-04-28T11:16:15;7.05;;;6.35;;
59016;SDS011;44800;55.600;38.134;2023-04-28T11:18:56;8.38;;;7.32;;
59016;SDS011;44800;55.600;38.134;2023-04-28T11:21:29;7.88;;;7.13;;
59016;SDS011;44800;55.600;38.134;2023-04-28T11:23:58;8.05;;;7.20;;
59016;SDS011;44800;55.600;38.134;2023-04-28T11:26:27;8.38;;;7.47;;
59016;SDS011;44800;55.600;38.134;2023-04-28T11:28:56;9.60;;;8.02;;
59016;SDS011;44800;55.600;38.134;2023-04-28T11:31:26;8.00;;;7.20;;
59016;SDS011;44800;55.600;38.134;2023-04-28T11:33:59;7.90;;;7.10;;
59016;SDS011;44800;55.600;38.134;2023-04-28T11:36:32;7.70;;;6.78;;
59016;SDS011;44800;55.600;38.134;2023-04-28T11:39:02;8.70;;;7.03;;
59016;SDS011;44800;55.600;38.134;2023-04-28T11:41:33;8.65;;;7.50;;
59016;SDS011;44800;55.600;38.134;2023-04-28T11:44:08;8.25;;;7.45;;
59016;SDS011;44800;55.600;38.134;2023-04-28T11:46:44;8.85;;;7.95;;
59016;SDS011;44800;55.600;38.134;2023-04-28T11:49:17;8.50;;;7.18;;
59016;SDS011;44800;55.600;38.134;2023-04-28T11:51:46;7.63;;;6.30;;
59016;SDS011;44800;55.600;38.134;2023-04-28T11:54:19;8.20;;;6.95;;
59016;SDS011;44800;55.600;38.134;2023-04-28T11:56:47;7.55;;;6.78;;
59016;SDS011;44800;55.600;38.134;2023-04-28T11:59:16;7.70;;;5.93;;
59016;SDS011;44800;55.600;38.134;2023-04-28T12:01:48;6.28;;;5.68;;
59016;SDS011;44800;55.600;38.134;2023-04-28T12:04:27;7.25;;;5.43;;
59016;SDS011;44800;55.600;38.134;2023-04-28T12:06:58;7.75;;;6.20;;
59016;SDS011;44800;55.600;38.134;2023-04-28T12:09:27;6.55;;;5.88;;
59016;SDS011;44800;55.600;38.134;2023-04-28T12:11:56;7.88;;;6.05;;
59016;SDS011;44800;55.600;38.134;2023-04-28T12:14:25;6.93;;;5.22;;
59016;SDS011;44800;55.600;38.134;2023-04-28T12:16:55;6.43;;;5.82;;
59016;SDS011;44800;55.600;38.134;2023-04-28T12:19:24;7.80;;;6.45;;
59016;SDS011;44800;55.600;38.134;2023-04-28T12:22:02;7.60;;;6.20;;
59016;SDS011;44800;55.600;38.134;2023-04-28T12:24:33;7.75;;;6.28;;
59016;SDS011;44800;55.600;38.134;2023-04-28T12:27:18;8.07;;;5.72;;
59016;SDS011;44800;55.600;38.134;2023-04-28T12:29:47;6.43;;;5.75;;
59016;SDS011;44800;55.600;38.134;2023-04-28T12:32:17;8.18;;;6.93;;
59016;SDS011;44800;55.600;38.134;2023-04-28T12:34:46;7.90;;;6.88;;
59016;SDS011;44800;55.600;38.134;2023-04-28T12:37:16;9.18;;;7.55;;
59016;SDS011;44800;55.600;38.134;2023-04-28T12:39:44;9.40;;;7.57;;
59016;SDS011;44800;55.600;38.134;2023-04-28T12:42:12;8.07;;;7.07;;
59016;SDS011;44800;55.600;38.134;2023-04-28T12:44:41;10.95;;;7.57;;
59016;SDS011;44800;55.600;38.134;2023-04-28T12:47:09;7.38;;;6.25;;
59016;SDS011;44800;55.600;38.134;2023-04-28T12:49:40;7.93;;;6.70;;
59016;SDS011;44800;55.600;38.134;2023-04-28T12:52:09;7.45;;;6.63;;
59016;SDS011;44800;55.600;38.134;2023-04-28T12:54:38;9.32;;;7.40;;
59016;SDS011;44800;55.600;38.134;2023-04-28T12:57:13;7.80;;;6.43;;
59016;SDS011;44800;55.600;38.134;2023-04-28T12:59:41;9.10;;;7.15;;
59016;SDS011;44800;55.600;38.134;2023-04-28T13:02:10;8.65;;;6.97;;
59016;SDS011;44800;55.600;38.134;2023-04-28T13:04:40;7.05;;;6.35;;
59016;SDS011;44800;55.600;38.134;2023-04-28T13:07:11;10.32;;;8.00;;
59016;SDS011;44800;55.600;38.134;2023-04-28T13:09:40;8.23;;;6.85;;
59016;SDS011;44800;55.600;38.134;2023-04-28T13:12:09;7.65;;;6.88;;
59016;SDS011;44800;55.600;38.134;2023-04-28T13:14:39;10.02;;;6.57;;
59016;SDS011;44800;55.600;38.134;2023-04-28T13:17:07;7.47;;;6.57;;
59016;SDS011;44800;55.600;38.134;2023-04-28T13:19:37;9.40;;;7.78;;
59016;SDS011;44800;55.600;38.134;2023-04-28T13:22:08;7.88;;;6.70;;
59016;SDS011;44800;55.600;38.134;2023-04-28T13:24:36;7.25;;;6.55;;
59016;SDS011;44800;55.600;38.134;2023-04-28T13:27:05;8.48;;;6.80;;
59016;SDS011;44800;55.600;38.134;2023-04-28T13:29:35;7.18;;;6.25;;
59016;SDS011;44800;55.600;38.134;2023-04-28T13:32:04;7.22;;;6.53;;
59016;SDS011;44800;55.600;38.134;2023-04-28T13:34:33;7.78;;;6.18;;
59016;SDS011;44800;55.600;38.134;2023-04-28T13:37:03;7.10;;;5.95;;
59016;SDS011;44800;55.600;38.134;2023-04-28T13:39:33;7.88;;;7.10;;
59016;SDS011;44800;55.600;38.134;2023-04-28T13:42:01;6.00;;;5.40;;
59016;SDS011;44800;55.600;38.134;2023-04-28T13:44:31;7.75;;;6.95;;
59016;SDS011;44800;55.600;38.134;2023-04-28T13:47:00;7.47;;;6.75;;
59016;SDS011;44800;55.600;38.134;2023-04-28T13:49:28;7.55;;;5.95;;
59016;SDS011;44800;55.600;38.134;2023-04-28T13:51:57;10.43;;;7.18;;
59016;SDS011;44800;55.600;38.134;2023-04-28T13:54:26;10.20;;;9.05;;
59016;SDS011;44800;55.600;38.134;2023-04-28T13:56:56;10.27;;;7.03;;
59016;SDS011;44800;55.600;38.134;2023-04-28T13:59:25;10.27;;;8.65;;
59016;SDS011;44800;55.600;38.134;2023-04-28T14:01:53;10.85;;;8.23;;
59016;SDS011;44800;55.600;38.134;2023-04-28T14:04:21;8.27;;;6.78;;
59016;SDS011;44800;55.600;38.134;2023-04-28T14:06:50;14.02;;;7.78;;
59016;SDS011;44800;55.600;38.134;2023-04-28T14:09:19;7.85;;;6.47;;
59016;SDS011;44800;55.600;38.134;2023-04-28T14:11:47;11.07;;;8.02;;
59016;SDS011;44800;55.600;38.134;2023-04-28T14:14:17;11.85;;;8.50;;
59016;SDS011;44800;55.600;38.134;2023-04-28T14:16:46;18.00;;;9.52;;
59016;SDS011;44800;55.600;38.134;2023-04-28T14:19:14;15.75;;;10.45;;
59016;SDS011;44800;55.600;38.134;2023-04-28T14:21:43;15.68;;;11.00;;
59016;SDS011;44800;55.600;38.134;2023-04-28T14:24:12;18.65;;;12.65;;
59016;SDS011;44800;55.600;38.134;2023-04-28T14:26:41;23.33;;;12.50;;
59016;SDS011;44800;55.600;38.134;2023-04-28T14:29:09;18.00;;;11.85;;
59016;SDS011;44800;55.600;38.134;2023-04-28T14:31:39;18.25;;;13.35;;
59016;SDS011;44800;55.600;38.134;2023-04-28T14:34:07;12.43;;;9.68;;
59016;SDS011;44800;55.600;38.134;2023-04-28T14:36:36;13.25;;;9.98;;
59016;SDS011;44800;55.600;38.134;2023-04-28T14:39:04;16.45;;;11.05;;
59016;SDS011;44800;55.600;38.134;2023-04-28T14:41:33;16.58;;;11.68;;
59016;SDS011;44800;55.600;38.134;2023-04-28T14:44:01;13.65;;;10.07;;
59016;SDS011;44800;55.600;38.134;2023-04-28T14:46:29;14.90;;;9.38;;
59016;SDS011;44800;55.600;38.134;2023-04-28T14:48:59;14.93;;;10.23;;